sensor_id;sensor_type;location;lat;lon;timestamp;P1;durP1;ratioP1;P2;durP2;ratioP2
14732;SDS011;7457;50.960;6.830;2024-02-15T00:02:17;7.65;;;3.03;;
14732;SDS011;7457;50.960;6.830;2024-02-15T00:04:42;4.97;;;3.25;;
14732;SDS011;7457;50.960;6.830;2024-02-15T00:07:08;4.50;;;3.88;;
14732;SDS011;7457;50.960;6.830;2024-02-15T00:09:34;5.45;;;3.05;;
14732;SDS011;7457;50.960;6.830;2024-02-15T00:12:00;5.20;;;3.00;;
14732;SDS011;7457;50.960;6.830;2024-02-15T00:14:26;4.88;;;3.47;;
14732;SDS011;7457;50.960;6.830;2024-02-15T00:16:54;5.00;;;3.25;;
14732;SDS011;7457;50.960;6.830;2024-02-15T00:19:20;5.43;;;3.38;;
14732;SDS011;7457;50.960;6.830;2024-02-15T00:21:47;6.15;;;3.10;;
14732;SDS011;7457;50.960;6.830;2024-02-15T00:24:13;7.90;;;3.58;;
14732;SDS011;7457;50.960;6.830;2024-02-15T00:26:40;6.57;;;3.35;;
14732;SDS011;7457;50.960;6.830;2024-02-15T00:29:07;7.15;;;3.90;;
14732;SDS011;7457;50.960;6.830;2024-02-15T00:31:33;7.13;;;3.58;;
14732;SDS011;7457;50.960;6.830;2024-02-15T00:34:00;3.63;;;3.20;;
14732;SDS011;7457;50.960;6.830;2024-02-15T00:36:28;5.65;;;3.25;;
14732;SDS011;7457;50.960;6.830;2024-02-15T00:38:54;6.75;;;3.55;;
14732;SDS011;7457;50.960;6.830;2024-02-15T00:41:20;8.20;;;3.83;;
14732;SDS011;7457;50.960;6.830;2024-02-15T00:43:47;4.10;;;3.10;;
14732;SDS011;7457;50.960;6.830;2024-02-15T00:46:13;7.05;;;3.55;;
14732;SDS011;7457;50.960;6.830;2024-02-15T00:48:39;6.20;;;3.17;;
14732;SDS011;7457;50.960;6.830;2024-02-15T00:51:05;7.45;;;3.50;;
14732;SDS011;7457;50.960;6.830;2024-02-15T00:53:31;3.95;;;3.20;;
14732;SDS011;7457;50.960;6.830;2024-02-15T00:55:57;7.97;;;4.07;;
14732;SDS011;7457;50.960;6.830;2024-02-15T00:58:23;9.90;;;3.97;;
14732;SDS011;7457;50.960;6.830;2024-02-15T01:00:49;4.82;;;3.70;;
14732;SDS011;7457;50.960;6.830;2024-02-15T01:03:15;11.77;;;3.78;;
14732;SDS011;7457;50.960;6.830;2024-02-15T01:05:41;8.85;;;3.83;;
14732;SDS011;7457;50.960;6.830;2024-02-15T01:08:07;8.50;;;4.22;;
14732;SDS011;7457;50.960;6.830;2024-02-15T01:10:34;7.00;;;3.97;;
14732;SDS011;7457;50.960;6.830;2024-02-15T01:13:00;7.65;;;3.60;;
14732;SDS011;7457;50.960;6.830;2024-02-15T01:15:26;7.15;;;4.20;;
14732;SDS011;7457;50.960;6.830;2024-02-15T01:17:51;7.90;;;4.00;;
14732;SDS011;7457;50.960;6.830;2024-02-15T01:20:17;8.80;;;4.43;;
14732;SDS011;7457;50.960;6.830;2024-02-15T01:22:43;6.68;;;3.58;;
14732;SDS011;7457;50.960;6.830;2024-02-15T01:25:11;6.07;;;3.75;;
14732;SDS011;7457;50.960;6.830;2024-02-15T01:27:38;8.88;;;4.28;;
14732;SDS011;7457;50.960;6.830;2024-02-15T01:30:04;8.10;;;4.20;;
14732;SDS011;7457;50.960;6.830;2024-02-15T01:32:30;6.40;;;4.40;;
14732;SDS011;7457;50.960;6.830;2024-02-15T01:34:56;5.97;;;4.10;;
14732;SDS011;7457;50.960;6.830;2024-02-15T01:37:22;7.00;;;3.75;;
14732;SDS011;7457;50.960;6.830;2024-02-15T01:39:49;6.93;;;3.95;;
14732;SDS011;7457;50.960;6.830;2024-02-15T01:42:16;7.80;;;3.70;;
14732;SDS011;7457;50.960;6.830;2024-02-15T01:44:41;6.85;;;3.50;;
14732;SDS011;7457;50.960;6.830;2024-02-15T01:47:09;7.75;;;3.50;;
14732;SDS011;7457;50.960;6.830;2024-02-15T01:49:36;9.23;;;4.13;;
14732;SDS011;7457;50.960;6.830;2024-02-15T01:52:02;6.85;;;3.38;;
14732;SDS011;7457;50.960;6.830;2024-02-15T01:54:33;6.15;;;3.67;;
14732;SDS011;7457;50.960;6.830;2024-02-15T01:57:01;3.70;;;2.67;;
14732;SDS011;7457;50.960;6.830;2024-02-15T01:59:28;4.75;;;3.30;;
14732;SDS011;7457;50.960;6.830;2024-02-15T02:01:54;5.45;;;3.20;;
14732;SDS011;7457;50.960;6.830;2024-02-15T02:04:20;4.18;;;2.58;;
14732;SDS011;7457;50.960;6.830;2024-02-15T02:06:46;3.40;;;2.80;;
14732;SDS011;7457;50.960;6.830;2024-02-15T02:09:12;3.55;;;2.47;;
14732;SDS011;7457;50.960;6.830;2024-02-15T02:11:39;3.95;;;2.50;;
14732;SDS011;7457;50.960;6.830;2024-02-15T02:14:05;5.10;;;2.80;;
14732;SDS011;7457;50.960;6.830;2024-02-15T02:16:31;3.88;;;2.70;;
14732;SDS011;7457;50.960;6.830;2024-02-15T02:19:00;6.28;;;3.25;;
14732;SDS011;7457;50.960;6.830;2024-02-15T02:21:26;3.55;;;2.55;;
14732;SDS011;7457;50.960;6.830;2024-02-15T02:23:55;3.75;;;3.17;;
14732;SDS011;7457;50.960;6.830;2024-02-15T02:26:22;2.78;;;2.13;;
14732;SDS011;7457;50.960;6.830;2024-02-15T02:28:49;3.03;;;2.60;;
14732;SDS011;7457;50.960;6.830;2024-02-15T02:31:15;3.47;;;2.30;;
14732;SDS011;7457;50.960;6.830;2024-02-15T02:33:41;2.58;;;2.38;;
14732;SDS011;7457;50.960;6.830;2024-02-15T02:36:07;3.50;;;2.65;;
14732;SDS011;7457;50.960;6.830;2024-02-15T02:38:35;3.58;;;2.78;;
14732;SDS011;7457;50.960;6.830;2024-02-15T02:41:05;3.72;;;2.25;;
14732;SDS011;7457;50.960;6.830;2024-02-15T02:43:31;3.63;;;2.58;;
14732;SDS011;7457;50.960;6.830;2024-02-15T02:45:57;3.25;;;2.63;;
14732;SDS011;7457;50.960;6.830;2024-02-15T02:48:22;4.00;;;2.22;;
14732;SDS011;7457;50.960;6.830;2024-02-15T02:50:49;2.55;;;2.35;;
14732;SDS011;7457;50.960;6.830;2024-02-15T02:53:15;5.18;;;2.83;;
14732;SDS011;7457;50.960;6.830;2024-02-15T02:55:41;4.82;;;2.70;;
14732;SDS011;7457;50.960;6.830;2024-02-15T02:58:07;4.00;;;2.47;;
14732;SDS011;7457;50.960;6.830;2024-02-15T03:00:33;3.40;;;2.80;;
14732;SDS011;7457;50.960;6.830;2024-02-15T03:02:59;6.05;;;2.72;;
14732;SDS011;7457;50.960;6.830;2024-02-15T03:05:26;4.90;;;2.83;;
14732;SDS011;7457;50.960;6.830;2024-02-15T03:07:51;5.20;;;2.72;;
14732;SDS011;7457;50.960;6.830;2024-02-15T03:10:17;7.75;;;3.13;;
14732;SDS011;7457;50.960;6.830;2024-02-15T03:12:44;3.30;;;2.67;;
14732;SDS011;7457;50.960;6.830;2024-02-15T03:15:13;3.60;;;3.00;;
14732;SDS011;7457;50.960;6.830;2024-02-15T03:17:40;5.45;;;2.90;;
14732;SDS011;7457;50.960;6.830;2024-02-15T03:20:07;5.63;;;3.03;;
14732;SDS011;7457;50.960;6.830;2024-02-15T03:22:45;5.78;;;3.38;;
14732;SDS011;7457;50.960;6.830;2024-02-15T03:25:15;3.67;;;3.38;;
14732;SDS011;7457;50.960;6.830;2024-02-15T03:27:41;4.47;;;3.05;;
14732;SDS011;7457;50.960;6.830;2024-02-15T03:30:07;3.83;;;3.17;;
14732;SDS011;7457;50.960;6.830;2024-02-15T03:32:32;4.28;;;3.58;;
14732;SDS011;7457;50.960;6.830;2024-02-15T03:34:58;4.20;;;3.40;;
14732;SDS011;7457;50.960;6.830;2024-02-15T03:37:26;3.92;;;3.63;;
14732;SDS011;7457;50.960;6.830;2024-02-15T03:39:52;6.18;;;3.83;;
14732;SDS011;7457;50.960;6.830;2024-02-15T03:42:18;4.88;;;3.38;;
14732;SDS011;7457;50.960;6.830;2024-02-15T03:44:43;5.53;;;3.75;;
14732;SDS011;7457;50.960;6.830;2024-02-15T03:47:09;4.78;;;3.75;;
14732;SDS011;7457;50.960;6.830;2024-02-15T03:49:38;4.43;;;3.97;;
14732;SDS011;7457;50.960;6.830;2024-02-15T03:52:06;5.63;;;4.22;;
14732;SDS011;7457;50.960;6.830;2024-02-15T03:54:35;4.70;;;4.25;;
14732;SDS011;7457;50.960;6.830;2024-02-15T03:57:01;6.63;;;3.97;;
14732;SDS011;7457;50.960;6.830;2024-02-15T03:59:27;8.40;;;4.05;;
14732;SDS011;7457;50.960;6.830;2024-02-15T04:01:53;5.57;;;3.92;;
14732;SDS011;7457;50.960;6.830;2024-02-15T04:04:20;6.32;;;4.10;;
14732;SDS011;7457;50.960;6.830;2024-02-15T04:06:51;5.07;;;4.18;;
14732;SDS011;7457;50.960;6.830;2024-02-15T04:09:18;5.05;;;4.32;;
14732;SDS011;7457;50.960;6.830;2024-02-15T04:11:45;7.00;;;4.28;;
14732;SDS011;7457;50.960;6.830;2024-02-15T04:14:15;5.13;;;4.32;;
14732;SDS011;7457;50.960;6.830;2024-02-15T04:16:43;5.50;;;3.95;;
14732;SDS011;7457;50.960;6.830;2024-02-15T04:19:12;6.80;;;5.03;;
14732;SDS011;7457;50.960;6.830;2024-02-15T04:21:38;5.82;;;4.30;;
14732;SDS011;7457;50.960;6.830;2024-02-15T04:24:05;4.50;;;4.10;;
14732;SDS011;7457;50.960;6.830;2024-02-15T04:26:31;5.30;;;4.50;;
14732;SDS011;7457;50.960;6.830;2024-02-15T04:28:58;5.82;;;4.03;;
14732;SDS011;7457;50.960;6.830;2024-02-15T04:31:24;8.50;;;4.45;;
14732;SDS011;7457;50.960;6.830;2024-02-15T04:33:53;4.65;;;3.90;;
14732;SDS011;7457;50.960;6.830;2024-02-15T04:36:19;7.13;;;5.00;;
14732;SDS011;7457;50.960;6.830;2024-02-15T04:38:49;4.70;;;4.20;;
14732;SDS011;7457;50.960;6.830;2024-02-15T04:41:15;6.25;;;4.20;;
14732;SDS011;7457;50.960;6.830;2024-02-15T04:43:47;7.20;;;4.50;;
14732;SDS011;7457;50.960;6.830;2024-02-15T04:46:17;5.55;;;3.47;;
14732;SDS011;7457;50.960;6.830;2024-02-15T04:48:47;7.07;;;4.25;;
14732;SDS011;7457;50.960;6.830;2024-02-15T04:51:15;4.78;;;4.07;;
14732;SDS011;7457;50.960;6.830;2024-02-15T04:53:45;5.03;;;4.18;;
14732;SDS011;7457;50.960;6.830;2024-02-15T04:56:14;9.82;;;4.18;;
14732;SDS011;7457;50.960;6.830;2024-02-15T04:58:41;5.80;;;4.38;;
14732;SDS011;7457;50.960;6.830;2024-02-15T05:01:16;6.75;;;4.30;;
14732;SDS011;7457;50.960;6.830;2024-02-15T05:03:44;8.57;;;4.68;;
14732;SDS011;7457;50.960;6.830;2024-02-15T05:06:10;5.00;;;4.13;;
14732;SDS011;7457;50.960;6.830;2024-02-15T05:08:40;6.10;;;4.53;;
14732;SDS011;7457;50.960;6.830;2024-02-15T05:11:10;5.35;;;4.47;;
14732;SDS011;7457;50.960;6.830;2024-02-15T05:13:43;5.65;;;4.68;;
14732;SDS011;7457;50.960;6.830;2024-02-15T05:16:10;10.45;;;4.50;;
14732;SDS011;7457;50.960;6.830;2024-02-15T05:18:36;6.30;;;5.00;;
14732;SDS011;7457;50.960;6.830;2024-02-15T05:21:05;8.20;;;4.90;;
14732;SDS011;7457;50.960;6.830;2024-02-15T05:23:34;7.90;;;4.50;;
14732;SDS011;7457;50.960;6.830;2024-02-15T05:26:01;9.13;;;4.25;;
14732;SDS011;7457;50.960;6.830;2024-02-15T05:28:27;7.20;;;3.90;;
14732;SDS011;7457;50.960;6.830;2024-02-15T05:31:08;7.22;;;4.55;;
14732;SDS011;7457;50.960;6.830;2024-02-15T05:33:37;4.88;;;4.18;;
14732;SDS011;7457;50.960;6.830;2024-02-15T05:36:12;6.65;;;4.25;;
14732;SDS011;7457;50.960;6.830;2024-02-15T05:38:38;6.22;;;5.03;;
14732;SDS011;7457;50.960;6.830;2024-02-15T05:41:05;8.50;;;4.53;;
14732;SDS011;7457;50.960;6.830;2024-02-15T05:43:34;6.72;;;4.35;;
14732;SDS011;7457;50.960;6.830;2024-02-15T05:46:03;9.27;;;5.15;;
14732;SDS011;7457;50.960;6.830;2024-02-15T05:48:29;5.13;;;4.32;;
14732;SDS011;7457;50.960;6.830;2024-02-15T05:50:56;6.85;;;4.50;;
14732;SDS011;7457;50.960;6.830;2024-02-15T05:53:22;7.18;;;4.70;;
14732;SDS011;7457;50.960;6.830;2024-02-15T05:55:49;6.93;;;4.95;;
14732;SDS011;7457;50.960;6.830;2024-02-15T05:58:15;5.28;;;4.18;;
14732;SDS011;7457;50.960;6.830;2024-02-15T06:00:42;9.18;;;5.13;;
14732;SDS011;7457;50.960;6.830;2024-02-15T06:03:12;7.40;;;5.00;;
14732;SDS011;7457;50.960;6.830;2024-02-15T06:05:38;7.50;;;4.78;;
14732;SDS011;7457;50.960;6.830;2024-02-15T06:08:04;5.72;;;5.13;;
14732;SDS011;7457;50.960;6.830;2024-02-15T06:10:31;7.90;;;4.60;;
14732;SDS011;7457;50.960;6.830;2024-02-15T06:12:56;8.23;;;5.15;;
14732;SDS011;7457;50.960;6.830;2024-02-15T06:15:24;6.88;;;4.57;;
14732;SDS011;7457;50.960;6.830;2024-02-15T06:17:50;8.15;;;5.20;;
14732;SDS011;7457;50.960;6.830;2024-02-15T06:20:16;10.65;;;5.05;;
14732;SDS011;7457;50.960;6.830;2024-02-15T06:22:45;9.63;;;5.25;;
14732;SDS011;7457;50.960;6.830;2024-02-15T06:25:11;10.10;;;5.47;;
14732;SDS011;7457;50.960;6.830;2024-02-15T06:27:45;7.95;;;5.05;;
14732;SDS011;7457;50.960;6.830;2024-02-15T06:30:12;9.25;;;4.45;;
14732;SDS011;7457;50.960;6.830;2024-02-15T06:32:59;8.13;;;4.00;;
14732;SDS011;7457;50.960;6.830;2024-02-15T06:35:43;6.18;;;4.50;;
14732;SDS011;7457;50.960;6.830;2024-02-15T06:38:27;7.07;;;4.50;;
14732;SDS011;7457;50.960;6.830;2024-02-15T06:41:12;11.13;;;4.15;;
14732;SDS011;7457;50.960;6.830;2024-02-15T06:43:38;5.97;;;4.15;;
14732;SDS011;7457;50.960;6.830;2024-02-15T06:46:08;10.20;;;4.25;;
14732;SDS011;7457;50.960;6.830;2024-02-15T06:48:37;9.73;;;4.22;;
14732;SDS011;7457;50.960;6.830;2024-02-15T06:51:11;7.35;;;4.80;;
14732;SDS011;7457;50.960;6.830;2024-02-15T06:53:39;6.13;;;4.22;;
14732;SDS011;7457;50.960;6.830;2024-02-15T06:56:05;10.02;;;4.03;;
14732;SDS011;7457;50.960;6.830;2024-02-15T06:58:35;7.55;;;4.85;;
14732;SDS011;7457;50.960;6.830;2024-02-15T07:01:01;8.02;;;4.32;;
14732;SDS011;7457;50.960;6.830;2024-02-15T07:03:30;11.30;;;3.92;;
14732;SDS011;7457;50.960;6.830;2024-02-15T07:05:57;6.88;;;3.92;;
14732;SDS011;7457;50.960;6.830;2024-02-15T07:08:23;5.95;;;4.10;;
14732;SDS011;7457;50.960;6.830;2024-02-15T07:10:49;7.78;;;4.15;;
14732;SDS011;7457;50.960;6.830;2024-02-15T07:13:16;6.20;;;3.95;;
14732;SDS011;7457;50.960;6.830;2024-02-15T07:15:43;8.68;;;4.15;;
14732;SDS011;7457;50.960;6.830;2024-02-15T07:18:10;9.95;;;4.60;;
14732;SDS011;7457;50.960;6.830;2024-02-15T07:20:42;5.70;;;4.15;;
14732;SDS011;7457;50.960;6.830;2024-02-15T07:23:07;9.30;;;4.18;;
14732;SDS011;7457;50.960;6.830;2024-02-15T07:25:33;12.73;;;4.53;;
14732;SDS011;7457;50.960;6.830;2024-02-15T07:27:59;10.23;;;4.00;;
14732;SDS011;7457;50.960;6.830;2024-02-15T07:30:25;10.35;;;4.18;;
14732;SDS011;7457;50.960;6.830;2024-02-15T07:32:51;5.75;;;3.58;;
14732;SDS011;7457;50.960;6.830;2024-02-15T07:35:17;9.73;;;4.05;;
14732;SDS011;7457;50.960;6.830;2024-02-15T07:37:52;6.18;;;4.18;;
14732;SDS011;7457;50.960;6.830;2024-02-15T07:40:21;8.05;;;4.03;;
14732;SDS011;7457;50.960;6.830;2024-02-15T07:42:47;7.03;;;4.78;;
14732;SDS011;7457;50.960;6.830;2024-02-15T07:45:14;12.30;;;4.47;;
14732;SDS011;7457;50.960;6.830;2024-02-15T07:47:40;4.68;;;3.22;;
14732;SDS011;7457;50.960;6.830;2024-02-15T07:50:06;8.55;;;4.00;;
14732;SDS011;7457;50.960;6.830;2024-02-15T07:52:59;8.70;;;4.80;;
14732;SDS011;7457;50.960;6.830;2024-02-15T07:55:25;5.85;;;3.42;;
14732;SDS011;7457;50.960;6.830;2024-02-15T07:57:50;5.20;;;3.97;;
14732;SDS011;7457;50.960;6.830;2024-02-15T08:00:18;4.72;;;4.05;;
14732;SDS011;7457;50.960;6.830;2024-02-15T08:02:44;7.07;;;4.10;;
14732;SDS011;7457;50.960;6.830;2024-02-15T08:05:11;5.25;;;3.53;;
14732;SDS011;7457;50.960;6.830;2024-02-15T08:07:41;4.78;;;3.33;;
14732;SDS011;7457;50.960;6.830;2024-02-15T08:10:09;6.53;;;4.03;;
14732;SDS011;7457;50.960;6.830;2024-02-15T08:12:40;6.90;;;3.80;;
14732;SDS011;7457;50.960;6.830;2024-02-15T08:15:10;6.55;;;3.80;;
14732;SDS011;7457;50.960;6.830;2024-02-15T08:17:42;5.30;;;3.50;;
14732;SDS011;7457;50.960;6.830;2024-02-15T08:20:12;7.65;;;3.42;;
14732;SDS011;7457;50.960;6.830;2024-02-15T08:22:39;4.53;;;3.55;;
14732;SDS011;7457;50.960;6.830;2024-02-15T08:25:09;6.88;;;3.40;;
14732;SDS011;7457;50.960;6.830;2024-02-15T08:27:42;6.85;;;3.17;;
14732;SDS011;7457;50.960;6.830;2024-02-15T08:30:09;6.88;;;3.47;;
14732;SDS011;7457;50.960;6.830;2024-02-15T08:32:42;6.70;;;3.67;;
14732;SDS011;7457;50.960;6.830;2024-02-15T08:35:11;7.70;;;3.40;;
14732;SDS011;7457;50.960;6.830;2024-02-15T08:37:38;3.60;;;2.75;;
14732;SDS011;7457;50.960;6.830;2024-02-15T08:40:05;8.77;;;3.83;;
14732;SDS011;7457;50.960;6.830;2024-02-15T08:42:42;8.10;;;3.67;;
14732;SDS011;7457;50.960;6.830;2024-02-15T08:45:08;5.53;;;3.22;;
14732;SDS011;7457;50.960;6.830;2024-02-15T08:47:38;9.20;;;3.47;;
14732;SDS011;7457;50.960;6.830;2024-02-15T08:50:04;6.57;;;3.40;;
14732;SDS011;7457;50.960;6.830;2024-02-15T08:52:31;7.05;;;3.13;;
14732;SDS011;7457;50.960;6.830;2024-02-15T08:54:57;5.70;;;2.92;;
14732;SDS011;7457;50.960;6.830;2024-02-15T08:57:24;4.30;;;2.88;;
14732;SDS011;7457;50.960;6.830;2024-02-15T08:59:51;5.88;;;3.22;;
14732;SDS011;7457;50.960;6.830;2024-02-15T09:02:17;5.60;;;2.80;;
14732;SDS011;7457;50.960;6.830;2024-02-15T09:04:43;6.18;;;3.45;;
14732;SDS011;7457;50.960;6.830;2024-02-15T09:07:09;7.78;;;3.13;;
14732;SDS011;7457;50.960;6.830;2024-02-15T09:09:35;6.32;;;3.13;;
14732;SDS011;7457;50.960;6.830;2024-02-15T09:12:04;6.75;;;3.65;;
14732;SDS011;7457;50.960;6.830;2024-02-15T09:14:33;8.43;;;3.97;;
14732;SDS011;7457;50.960;6.830;2024-02-15T09:17:00;7.85;;;3.83;;
14732;SDS011;7457;50.960;6.830;2024-02-15T09:19:26;4.50;;;3.58;;
14732;SDS011;7457;50.960;6.830;2024-02-15T09:21:52;6.63;;;3.67;;
14732;SDS011;7457;50.960;6.830;2024-02-15T09:24:20;6.63;;;3.78;;
14732;SDS011;7457;50.960;6.830;2024-02-15T09:26:45;7.40;;;3.90;;
14732;SDS011;7457;50.960;6.830;2024-02-15T09:29:11;6.30;;;4.05;;
14732;SDS011;7457;50.960;6.830;2024-02-15T09:31:37;7.15;;;4.15;;
14732;SDS011;7457;50.960;6.830;2024-02-15T09:34:05;7.22;;;4.00;;
14732;SDS011;7457;50.960;6.830;2024-02-15T09:36:35;8.43;;;4.32;;
14732;SDS011;7457;50.960;6.830;2024-02-15T09:39:03;6.15;;;4.20;;
14732;SDS011;7457;50.960;6.830;2024-02-15T09:41:29;7.63;;;4.43;;
14732;SDS011;7457;50.960;6.830;2024-02-15T09:43:55;6.43;;;4.00;;
14732;SDS011;7457;50.960;6.830;2024-02-15T09:46:22;5.60;;;3.90;;
14732;SDS011;7457;50.960;6.830;2024-02-15T09:48:49;6.82;;;4.25;;
14732;SDS011;7457;50.960;6.830;2024-02-15T09:51:17;6.80;;;3.88;;
14732;SDS011;7457;50.960;6.830;2024-02-15T09:53:45;6.85;;;4.05;;
14732;SDS011;7457;50.960;6.830;2024-02-15T09:56:13;5.97;;;3.92;;
14732;SDS011;7457;50.960;6.830;2024-02-15T09:58:40;9.25;;;3.90;;
14732;SDS011;7457;50.960;6.830;2024-02-15T10:01:07;8.10;;;4.07;;
14732;SDS011;7457;50.960;6.830;2024-02-15T10:03:38;9.50;;;4.07;;
14732;SDS011;7457;50.960;6.830;2024-02-15T10:06:08;8.98;;;3.58;;
14732;SDS011;7457;50.960;6.830;2024-02-15T10:08:33;6.32;;;3.38;;
14732;SDS011;7457;50.960;6.830;2024-02-15T10:11:08;5.97;;;3.28;;
14732;SDS011;7457;50.960;6.830;2024-02-15T10:13:34;7.13;;;3.55;;
14732;SDS011;7457;50.960;6.830;2024-02-15T10:16:13;5.18;;;3.33;;
14732;SDS011;7457;50.960;6.830;2024-02-15T10:18:44;5.82;;;3.20;;
14732;SDS011;7457;50.960;6.830;2024-02-15T10:21:10;7.22;;;3.38;;
14732;SDS011;7457;50.960;6.830;2024-02-15T10:24:01;6.88;;;3.58;;
14732;SDS011;7457;50.960;6.830;2024-02-15T10:26:34;5.45;;;2.88;;
14732;SDS011;7457;50.960;6.830;2024-02-15T10:29:10;6.53;;;3.17;;
14732;SDS011;7457;50.960;6.830;2024-02-15T10:31:40;7.85;;;3.03;;
14732;SDS011;7457;50.960;6.830;2024-02-15T10:34:21;4.65;;;2.67;;
14732;SDS011;7457;50.960;6.830;2024-02-15T10:36:48;5.03;;;2.90;;
14732;SDS011;7457;50.960;6.830;2024-02-15T10:39:16;5.93;;;3.00;;
14732;SDS011;7457;50.960;6.830;2024-02-15T10:41:44;5.95;;;3.22;;
14732;SDS011;7457;50.960;6.830;2024-02-15T10:44:18;5.43;;;2.60;;
14732;SDS011;7457;50.960;6.830;2024-02-15T10:46:45;7.15;;;3.50;;
14732;SDS011;7457;50.960;6.830;2024-02-15T10:49:21;6.35;;;3.30;;
14732;SDS011;7457;50.960;6.830;2024-02-15T10:51:57;4.10;;;2.83;;
14732;SDS011;7457;50.960;6.830;2024-02-15T10:57:12;7.40;;;2.92;;
14732;SDS011;7457;50.960;6.830;2024-02-15T11:00:02;7.63;;;2.95;;
14732;SDS011;7457;50.960;6.830;2024-02-15T11:02:39;5.93;;;3.15;;
14732;SDS011;7457;50.960;6.830;2024-02-15T11:05:10;5.50;;;2.65;;
14732;SDS011;7457;50.960;6.830;2024-02-15T11:07:39;5.30;;;2.88;;
14732;SDS011;7457;50.960;6.830;2024-02-15T11:10:08;6.00;;;2.70;;
14732;SDS011;7457;50.960;6.830;2024-02-15T11:12:36;6.40;;;2.85;;
14732;SDS011;7457;50.960;6.830;2024-02-15T11:15:03;4.50;;;2.80;;
14732;SDS011;7457;50.960;6.830;2024-02-15T11:17:49;5.75;;;3.17;;
14732;SDS011;7457;50.960;6.830;2024-02-15T11:23:02;5.68;;;2.58;;
14732;SDS011;7457;50.960;6.830;2024-02-15T11:25:32;4.15;;;2.60;;
14732;SDS011;7457;50.960;6.830;2024-02-15T11:30:47;5.70;;;2.97;;
14732;SDS011;7457;50.960;6.830;2024-02-15T11:33:27;5.97;;;3.15;;
14732;SDS011;7457;50.960;6.830;2024-02-15T11:36:06;6.80;;;2.60;;
14732;SDS011;7457;50.960;6.830;2024-02-15T11:38:35;6.03;;;2.90;;
14732;SDS011;7457;50.960;6.830;2024-02-15T11:41:02;5.35;;;3.10;;
14732;SDS011;7457;50.960;6.830;2024-02-15T11:46:13;6.20;;;2.80;;
14732;SDS011;7457;50.960;6.830;2024-02-15T11:48:40;3.10;;;2.25;;
14732;SDS011;7457;50.960;6.830;2024-02-15T11:51:09;6.78;;;2.70;;
14732;SDS011;7457;50.960;6.830;2024-02-15T11:53:37;4.72;;;2.97;;
14732;SDS011;7457;50.960;6.830;2024-02-15T11:56:03;5.80;;;2.33;;
14732;SDS011;7457;50.960;6.830;2024-02-15T11:58:35;4.07;;;2.50;;
14732;SDS011;7457;50.960;6.830;2024-02-15T12:01:17;10.25;;;2.92;;
14732;SDS011;7457;50.960;6.830;2024-02-15T12:04:02;5.47;;;2.38;;
14732;SDS011;7457;50.960;6.830;2024-02-15T12:06:46;6.72;;;2.58;;
14732;SDS011;7457;50.960;6.830;2024-02-15T12:09:31;6.15;;;2.63;;
14732;SDS011;7457;50.960;6.830;2024-02-15T12:12:26;4.28;;;3.00;;
14732;SDS011;7457;50.960;6.830;2024-02-15T12:15:10;4.60;;;2.38;;
14732;SDS011;7457;50.960;6.830;2024-02-15T12:17:55;3.55;;;2.30;;
14732;SDS011;7457;50.960;6.830;2024-02-15T12:20:56;4.72;;;2.55;;
14732;SDS011;7457;50.960;6.830;2024-02-15T12:23:22;5.65;;;2.53;;
14732;SDS011;7457;50.960;6.830;2024-02-15T12:25:51;6.13;;;2.53;;
14732;SDS011;7457;50.960;6.830;2024-02-15T12:28:18;4.38;;;2.47;;
14732;SDS011;7457;50.960;6.830;2024-02-15T12:30:43;4.20;;;2.20;;
14732;SDS011;7457;50.960;6.830;2024-02-15T12:33:10;7.13;;;2.40;;
14732;SDS011;7457;50.960;6.830;2024-02-15T12:35:37;3.63;;;2.20;;
14732;SDS011;7457;50.960;6.830;2024-02-15T12:38:03;5.45;;;2.30;;
14732;SDS011;7457;50.960;6.830;2024-02-15T12:40:37;4.15;;;2.25;;
14732;SDS011;7457;50.960;6.830;2024-02-15T12:43:08;5.30;;;2.15;;
14732;SDS011;7457;50.960;6.830;2024-02-15T12:45:35;2.20;;;1.42;;
14732;SDS011;7457;50.960;6.830;2024-02-15T12:48:05;3.70;;;1.55;;
14732;SDS011;7457;50.960;6.830;2024-02-15T12:50:31;5.28;;;1.90;;
14732;SDS011;7457;50.960;6.830;2024-02-15T12:52:58;3.47;;;1.45;;
14732;SDS011;7457;50.960;6.830;2024-02-15T12:55:31;5.03;;;2.00;;
14732;SDS011;7457;50.960;6.830;2024-02-15T12:58:01;5.93;;;2.50;;
14732;SDS011;7457;50.960;6.830;2024-02-15T13:00:34;5.05;;;2.42;;
14732;SDS011;7457;50.960;6.830;2024-02-15T13:03:04;6.38;;;2.45;;
14732;SDS011;7457;50.960;6.830;2024-02-15T13:05:34;6.45;;;2.40;;
14732;SDS011;7457;50.960;6.830;2024-02-15T13:08:01;5.72;;;2.55;;
14732;SDS011;7457;50.960;6.830;2024-02-15T13:10:28;5.55;;;2.75;;
14732;SDS011;7457;50.960;6.830;2024-02-15T13:12:55;6.22;;;2.60;;
14732;SDS011;7457;50.960;6.830;2024-02-15T13:15:21;6.75;;;2.80;;
14732;SDS011;7457;50.960;6.830;2024-02-15T13:17:52;6.93;;;2.90;;
14732;SDS011;7457;50.960;6.830;2024-02-15T13:20:22;6.13;;;2.50;;
14732;SDS011;7457;50.960;6.830;2024-02-15T13:23:03;6.53;;;2.50;;
14732;SDS011;7457;50.960;6.830;2024-02-15T13:25:47;5.22;;;2.65;;
14732;SDS011;7457;50.960;6.830;2024-02-15T13:28:14;6.40;;;2.30;;
14732;SDS011;7457;50.960;6.830;2024-02-15T13:30:41;3.28;;;2.38;;
14732;SDS011;7457;50.960;6.830;2024-02-15T13:33:10;4.68;;;2.13;;
14732;SDS011;7457;50.960;6.830;2024-02-15T13:35:39;4.47;;;2.67;;
14732;SDS011;7457;50.960;6.830;2024-02-15T13:38:05;5.35;;;2.30;;
14732;SDS011;7457;50.960;6.830;2024-02-15T13:40:34;5.25;;;2.60;;
14732;SDS011;7457;50.960;6.830;2024-02-15T13:43:00;5.68;;;2.70;;
14732;SDS011;7457;50.960;6.830;2024-02-15T13:45:35;3.47;;;2.00;;
14732;SDS011;7457;50.960;6.830;2024-02-15T13:48:05;4.38;;;2.13;;
14732;SDS011;7457;50.960;6.830;2024-02-15T13:50:32;4.90;;;2.00;;
14732;SDS011;7457;50.960;6.830;2024-02-15T13:52:58;4.03;;;2.05;;
14732;SDS011;7457;50.960;6.830;2024-02-15T13:55:25;3.10;;;2.28;;
14732;SDS011;7457;50.960;6.830;2024-02-15T13:57:51;3.60;;;2.20;;
14732;SDS011;7457;50.960;6.830;2024-02-15T14:00:18;5.97;;;2.10;;
14732;SDS011;7457;50.960;6.830;2024-02-15T14:02:51;3.33;;;2.33;;
14732;SDS011;7457;50.960;6.830;2024-02-15T14:05:22;6.95;;;2.20;;
14732;SDS011;7457;50.960;6.830;2024-02-15T14:07:51;5.70;;;2.30;;
14732;SDS011;7457;50.960;6.830;2024-02-15T14:10:21;8.25;;;2.78;;
14732;SDS011;7457;50.960;6.830;2024-02-15T14:12:48;2.40;;;1.85;;
14732;SDS011;7457;50.960;6.830;2024-02-15T14:15:15;5.63;;;2.33;;
14732;SDS011;7457;50.960;6.830;2024-02-15T14:17:42;5.30;;;2.50;;
14732;SDS011;7457;50.960;6.830;2024-02-15T14:20:09;5.50;;;2.50;;
14732;SDS011;7457;50.960;6.830;2024-02-15T14:22:39;3.85;;;2.40;;
14732;SDS011;7457;50.960;6.830;2024-02-15T14:25:06;4.93;;;2.80;;
14732;SDS011;7457;50.960;6.830;2024-02-15T14:27:32;5.28;;;2.40;;
14732;SDS011;7457;50.960;6.830;2024-02-15T14:29:58;4.35;;;2.47;;
14732;SDS011;7457;50.960;6.830;2024-02-15T14:32:45;4.60;;;2.08;;
14732;SDS011;7457;50.960;6.830;2024-02-15T14:35:31;4.80;;;2.47;;
14732;SDS011;7457;50.960;6.830;2024-02-15T14:40:34;3.72;;;2.20;;
14732;SDS011;7457;50.960;6.830;2024-02-15T14:43:01;5.70;;;2.25;;
14732;SDS011;7457;50.960;6.830;2024-02-15T14:45:29;5.63;;;2.53;;
14732;SDS011;7457;50.960;6.830;2024-02-15T14:47:59;4.53;;;2.65;;
14732;SDS011;7457;50.960;6.830;2024-02-15T14:50:25;4.32;;;2.20;;
14732;SDS011;7457;50.960;6.830;2024-02-15T14:52:51;5.63;;;2.20;;
14732;SDS011;7457;50.960;6.830;2024-02-15T14:55:18;3.13;;;1.92;;
14732;SDS011;7457;50.960;6.830;2024-02-15T14:57:45;6.03;;;2.53;;
14732;SDS011;7457;50.960;6.830;2024-02-15T15:00:12;4.40;;;2.30;;
14732;SDS011;7457;50.960;6.830;2024-02-15T15:02:41;6.28;;;2.15;;
14732;SDS011;7457;50.960;6.830;2024-02-15T15:05:08;4.57;;;2.25;;
14732;SDS011;7457;50.960;6.830;2024-02-15T15:07:52;4.53;;;1.90;;
14732;SDS011;7457;50.960;6.830;2024-02-15T15:10:37;5.32;;;2.30;;
14732;SDS011;7457;50.960;6.830;2024-02-15T15:13:21;5.75;;;2.20;;
14732;SDS011;7457;50.960;6.830;2024-02-15T15:15:48;2.97;;;2.10;;
14732;SDS011;7457;50.960;6.830;2024-02-15T15:18:14;4.05;;;2.20;;
14732;SDS011;7457;50.960;6.830;2024-02-15T15:20:40;4.40;;;1.98;;
14732;SDS011;7457;50.960;6.830;2024-02-15T15:23:06;7.45;;;2.60;;
14732;SDS011;7457;50.960;6.830;2024-02-15T15:25:35;4.45;;;2.50;;